Time;durP1;ratioP1;P1;durP2;ratioP2;P2;SDS_P1;SDS_P2;PMS_P1;PMS_P2;Temp;Humidity;BMP_temperature;BMP_pressure;BME280_temperature;BME280_humidity;BME280_pressure;Samples;Min_cycle;Max_cycle;Signal;HPM_P1;HPM_P2
2021/05/12 00:00:08;;;;;;;24.95;14.18;;;;;;;15.66;67.46;101045.34;4986617;28;20046;-64
2021/05/12 00:02:35;;;;;;;24.77;13.27;;;;;;;15.73;66.95;101054.13;4985796;28;20545;-63
2021/05/12 00:05:01;;;;;;;26.58;14.55;;;;;;;15.62;67.18;101050.81;4986577;28;20493;-64
2021/05/12 00:07:27;;;;;;;30.20;15.18;;;;;;;15.53;67.57;101048.31;4987698;28;20062;-66
2021/05/12 00:09:53;;;;;;;28.38;15.90;;;;;;;15.43;67.82;101047.59;4969081;28;20105;-69
2021/05/12 00:12:19;;;;;;;27.27;17.25;;;;;;;15.41;68.08;101041.41;4988286;28;20072;-65
2021/05/12 00:14:45;;;;;;;24.55;16.48;;;;;;;15.22;69.29;101047.97;4982599;28;20137;-64
2021/05/12 00:17:13;;;;;;;25.20;16.63;;;;;;;15.09;69.01;101022.41;4953675;28;20133;-62
2021/05/12 00:19:41;;;;;;;29.58;16.60;;;;;;;15.35;68.44;101043.34;4968294;28;20046;-63
2021/05/12 00:24:39;;;;;;;26.13;16.73;;;;;;;15.26;69.13;101062.16;4987337;28;20074;-64
2021/05/12 00:27:06;;;;;;;30.58;16.80;;;;;;;15.14;69.15;101052.59;4952293;28;20041;-64
2021/05/12 00:29:32;;;;;;;26.58;16.95;;;;;;;15.18;69.30;101062.31;4984992;28;20050;-65
2021/05/12 00:31:58;;;;;;;29.45;16.17;;;;;;;15.20;68.99;101059.63;4969858;28;20046;-66
2021/05/12 00:34:24;;;;;;;29.20;16.20;;;;;;;15.20;69.24;101051.59;4987633;28;20060;-70
2021/05/12 00:36:50;;;;;;;27.23;16.83;;;;;;;15.19;69.46;101055.19;4986195;28;20046;-63
2021/05/12 00:39:15;;;;;;;27.08;16.90;;;;;;;15.24;69.18;101055.97;4986379;28;20661;-62
2021/05/12 00:41:42;;;;;;;26.15;16.30;;;;;;;15.20;69.48;101060.50;4987848;28;20141;-64
2021/05/12 00:44:19;;;;;;;28.65;17.35;;;;;;;14.93;70.29;101058.31;4967106;28;20052;-65
2021/05/12 00:46:51;;;;;;;26.92;16.38;;;;;;;15.09;69.87;101064.25;4969408;28;20427;-62
2021/05/12 00:49:18;;;;;;;25.60;15.70;;;;;;;14.91;70.35;101061.91;4953757;28;20171;-62
2021/05/12 00:51:45;;;;;;;26.45;15.85;;;;;;;15.05;69.75;101070.56;4951617;28;20046;-63
2021/05/12 00:54:12;;;;;;;24.35;16.52;;;;;;;15.02;69.57;101060.81;4969841;28;20074;-62
2021/05/12 00:56:42;;;;;;;26.48;15.60;;;;;;;14.90;70.02;101045.00;4969759;28;20130;-62
2021/05/12 00:59:09;;;;;;;30.80;16.42;;;;;;;15.01;69.57;101068.84;4985361;28;20104;-63
2021/05/12 01:01:37;;;;;;;32.25;16.23;;;;;;;14.98;70.13;101068.91;4947879;28;20070;-62
2021/05/12 01:04:07;;;;;;;26.52;14.65;;;;;;;14.84;70.27;101047.78;4934437;28;20524;-62
2021/05/12 01:06:39;;;;;;;27.63;15.07;;;;;;;14.85;69.97;101062.00;4966454;28;20054;-69
2021/05/12 01:09:06;;;;;;;21.42;14.35;;;;;;;14.67;71.31;101057.84;4964466;28;20053;-65
2021/05/12 01:11:33;;;;;;;22.30;14.20;;;;;;;14.51;71.46;101031.44;4966065;28;20046;-64
2021/05/12 01:14:00;;;;;;;21.23;13.98;;;;;;;14.80;70.61;101047.84;4965944;28;20051;-66
2021/05/12 01:16:26;;;;;;;21.17;14.10;;;;;;;14.26;72.59;101041.59;4982557;28;20180;-63
2021/05/12 01:18:52;;;;;;;21.60;13.90;;;;;;;14.49;71.84;101062.59;4951716;28;20538;-63
2021/05/12 01:21:18;;;;;;;21.65;14.23;;;;;;;14.62;71.34;101072.16;4985326;28;20053;-63
2021/05/12 01:23:46;;;;;;;22.80;14.52;;;;;;;14.68;70.67;101062.28;4950278;28;20046;-63
2021/05/12 01:26:23;;;;;;;32.25;15.30;;;;;;;14.53;70.71;101043.84;4985350;28;20155;-62
2021/05/12 01:28:54;;;;;;;22.42;15.38;;;;;;;14.68;71.12;101069.41;4985445;28;20065;-63
2021/05/12 01:31:23;;;;;;;24.27;15.23;;;;;;;14.53;71.26;101070.53;4981392;28;20069;-67
2021/05/12 01:33:51;;;;;;;23.73;14.50;;;;;;;14.58;71.25;101076.69;4985503;28;20038;-66
2021/05/12 01:36:18;;;;;;;26.25;14.77;;;;;;;14.51;71.54;101077.69;4985042;28;20046;-65
2021/05/12 01:38:46;;;;;;;26.58;15.32;;;;;;;14.52;71.49;101067.91;4965989;28;20050;-65
2021/05/12 01:41:12;;;;;;;24.23;14.43;;;;;;;14.39;71.42;101045.84;4984327;28;20073;-64
2021/05/12 01:43:39;;;;;;;24.33;13.73;;;;;;;14.54;70.64;101047.38;4969521;28;20466;-65
2021/05/12 01:46:05;;;;;;;30.92;14.45;;;;;;;14.53;71.07;101059.88;4984565;28;20491;-66
2021/05/12 01:48:32;;;;;;;22.13;12.98;;;;;;;14.38;71.96;101069.88;4985621;28;20054;-62
2021/05/12 01:50:58;;;;;;;25.88;13.18;;;;;;;14.49;71.35;101057.25;4986446;28;20043;-64
2021/05/12 01:53:25;;;;;;;22.77;13.65;;;;;;;14.35;72.02;101057.47;4987631;28;20053;-63
2021/05/12 01:55:52;;;;;;;26.90;14.02;;;;;;;14.45;71.43;101069.78;4967257;28;20584;-60
2021/05/12 01:58:18;;;;;;;21.48;13.18;;;;;;;14.53;71.06;101058.97;4969183;28;20042;-63
2021/05/12 02:00:48;;;;;;;23.67;13.63;;;;;;;14.48;70.76;101044.81;4985032;28;20039;-65
2021/05/12 02:03:14;;;;;;;20.25;11.65;;;;;;;14.31;71.55;101068.22;4983802;28;20065;-69
2021/05/12 02:05:41;;;;;;;22.95;12.82;;;;;;;14.27;72.04;101067.38;4967980;28;20042;-62
2021/05/12 02:08:12;;;;;;;26.38;13.98;;;;;;;14.32;71.69;101062.84;4981802;28;20141;-63
2021/05/12 02:10:41;;;;;;;24.45;12.00;;;;;;;14.33;71.87;101067.28;4986156;28;20057;-63
2021/05/12 02:13:08;;;;;;;17.20;12.68;;;;;;;13.75;73.89;101063.59;4985023;28;20553;-64
2021/05/12 02:15:40;;;;;;;23.98;12.95;;;;;;;13.64;74.32;101066.41;4985118;28;20046;-63
2021/05/12 02:18:06;;;;;;;18.75;12.82;;;;;;;13.64;74.22;101055.72;4985640;28;20117;-63
2021/05/12 02:20:34;;;;;;;20.60;13.10;;;;;;;13.83;73.18;101059.94;4999637;28;20042;-63
2021/05/12 02:23:02;;;;;;;18.73;11.57;;;;;;;13.66;73.81;101051.25;4989990;28;20174;-64
2021/05/12 02:25:28;;;;;;;19.67;11.93;;;;;;;13.62;73.69;101046.00;4988935;28;20050;-65
2021/05/12 02:27:55;;;;;;;16.88;9.35;;;;;;;13.62;73.82;101051.31;4987150;28;20042;-67
2021/05/12 02:30:22;;;;;;;19.23;12.13;;;;;;;13.69;73.73;101055.69;4989596;28;20057;-64
2021/05/12 02:32:48;;;;;;;16.42;11.40;;;;;;;13.63;73.75;101066.41;4989816;28;20110;-63
2021/05/12 02:35:16;;;;;;;19.00;10.73;;;;;;;13.74;73.41;101069.84;4989522;28;20514;-63
2021/05/12 02:37:42;;;;;;;19.38;11.05;;;;;;;13.75;73.37;101067.16;4986903;28;20088;-63
2021/05/12 02:40:13;;;;;;;18.67;10.07;;;;;;;13.77;73.05;101072.47;4989962;28;20046;-62
2021/05/12 02:42:39;;;;;;;20.38;11.00;;;;;;;13.98;72.15;101072.19;5004791;28;20038;-63
2021/05/12 02:45:06;;;;;;;24.02;11.32;;;;;;;14.20;71.61;101076.31;4984979;28;20108;-64
2021/05/12 02:47:32;;;;;;;31.17;12.38;;;;;;;14.33;71.10;101066.41;4989101;28;20043;-62
2021/05/12 02:49:59;;;;;;;18.42;11.93;;;;;;;14.35;70.75;101075.28;4989672;28;20053;-64
2021/05/12 02:52:25;;;;;;;31.65;12.88;;;;;;;14.44;70.29;101065.31;4989138;28;20054;-69
2021/05/12 02:54:51;;;;;;;26.85;13.68;;;;;;;14.62;69.81;101077.50;4987999;28;20124;-62
2021/05/12 02:57:17;;;;;;;39.30;13.88;;;;;;;14.76;69.58;101078.19;4987849;28;20054;-63
2021/05/12 02:59:43;;;;;;;32.40;13.52;;;;;;;14.76;69.04;101060.41;4988716;28;20061;-62
2021/05/12 03:02:09;;;;;;;26.48;13.30;;;;;;;14.88;68.61;101054.84;4985521;28;20046;-64
2021/05/12 03:04:35;;;;;;;51.80;15.02;;;;;;;15.03;68.55;101070.59;5004052;28;20136;-64
2021/05/12 03:07:01;;;;;;;30.95;15.20;;;;;;;15.06;68.50;101059.84;4987488;28;20061;-62
2021/05/12 03:09:27;;;;;;;31.67;16.48;;;;;;;15.17;68.29;101068.56;4987934;28;20046;-69
2021/05/12 03:11:53;;;;;;;33.30;14.90;;;;;;;15.23;67.69;101063.09;4987418;28;20053;-62
2021/05/12 03:14:20;;;;;;;39.28;14.60;;;;;;;15.22;67.73;101077.38;4989051;28;20046;-63
2021/05/12 03:16:46;;;;;;;26.23;9.45;;;;;;;15.13;67.58;101052.59;4987157;28;20046;-62
2021/05/12 03:19:12;;;;;;;25.40;12.68;;;;;;;15.18;68.20;101069.44;5002942;28;20040;-66
2021/05/12 03:21:39;;;;;;;24.02;12.23;;;;;;;15.20;68.04;101076.53;5003846;28;20046;-64
2021/05/12 03:24:05;;;;;;;20.35;10.63;;;;;;;15.23;67.48;101070.25;4988261;28;20057;-64
2021/05/12 03:26:32;;;;;;;27.52;11.13;;;;;;;15.14;67.34;101070.38;4971360;28;20037;-64
2021/05/12 03:28:58;;;;;;;29.92;12.00;;;;;;;15.24;67.69;101075.56;4969426;28;20179;-64
2021/05/12 03:31:24;;;;;;;23.55;9.98;;;;;;;15.23;66.89;101068.44;4988704;28;20038;-64
2021/05/12 03:33:55;;;;;;;25.48;11.73;;;;;;;15.31;67.22;101077.19;4988490;28;20409;-62
2021/05/12 03:36:22;;;;;;;29.10;11.25;;;;;;;15.41;66.63;101088.63;4986430;28;20053;-72
2021/05/12 03:38:47;;;;;;;33.10;10.85;;;;;;;15.47;66.31;101083.19;4988407;28;20898;-65
2021/05/12 03:41:13;;;;;;;29.17;12.55;;;;;;;15.30;66.59;101062.09;4970779;28;20149;-63
2021/05/12 03:43:39;;;;;;;32.70;10.70;;;;;;;15.44;66.44;101070.78;4988214;28;20050;-65
2021/05/12 03:46:05;;;;;;;36.80;18.23;;;;;;;15.20;67.00;101070.28;4967553;28;20058;-64
2021/05/12 03:48:31;;;;;;;41.53;20.77;;;;;;;14.98;68.08;101058.22;4954897;28;20038;-62
2021/05/12 03:50:58;;;;;;;31.13;10.98;;;;;;;15.02;67.77;101041.22;4971017;28;20046;-66
2021/05/12 03:53:24;;;;;;;23.35;10.50;;;;;;;15.21;67.18;101062.25;4970509;28;20092;-69
2021/05/12 03:55:50;;;;;;;36.53;10.68;;;;;;;15.18;67.64;101064.09;4987984;28;20262;-63
2021/05/12 03:58:16;;;;;;;35.75;11.23;;;;;;;15.27;66.92;101067.47;4988317;28;20042;-65
2021/05/12 04:00:43;;;;;;;19.60;8.80;;;;;;;15.26;67.01;101072.84;4987305;28;20053;-61
2021/05/12 04:03:08;;;;;;;15.98;8.45;;;;;;;15.06;67.18;101049.16;4985603;28;20574;-62
2021/05/12 04:05:34;;;;;;;14.73;7.07;;;;;;;14.93;67.95;101057.41;4970830;28;20201;-65
2021/05/12 04:08:02;;;;;;;19.80;8.00;;;;;;;14.99;67.92;101066.19;4986877;28;20058;-63
2021/05/12 04:10:29;;;;;;;18.58;8.15;;;;;;;15.08;67.26;101071.41;5003808;28;20105;-69
2021/05/12 04:12:56;;;;;;;17.77;9.57;;;;;;;15.15;67.38;101074.84;4986829;28;20054;-63
2021/05/12 04:15:23;;;;;;;14.43;8.52;;;;;;;15.15;66.96;101053.47;4987366;28;20046;-62
2021/05/12 04:17:49;;;;;;;17.88;9.75;;;;;;;15.18;67.33;101069.44;5002888;28;20045;-64
2021/05/12 04:20:18;;;;;;;16.00;8.95;;;;;;;15.22;67.30;101066.69;4968242;28;20201;-65
2021/05/12 04:22:44;;;;;;;24.35;10.07;;;;;;;15.22;67.66;101066.69;4987978;28;20082;-63
2021/05/12 04:25:13;;;;;;;30.40;9.77;;;;;;;15.38;67.26;101062.00;4986213;28;20077;-65
2021/05/12 04:27:39;;;;;;;28.63;10.30;;;;;;;15.51;66.92;101071.53;4986498;28;20042;-72
2021/05/12 04:30:09;;;;;;;28.75;10.35;;;;;;;15.60;66.37;101066.88;5001072;28;20096;-66
2021/05/12 04:32:37;;;;;;;29.20;9.30;;;;;;;15.69;65.59;101065.81;4985977;28;20124;-63
2021/05/12 04:35:03;;;;;;;31.17;10.18;;;;;;;15.84;65.24;101071.75;4969930;28;20498;-64
2021/05/12 04:37:29;;;;;;;39.30;10.90;;;;;;;15.97;64.86;101073.25;4984042;28;20493;-64
2021/05/12 04:39:55;;;;;;;20.67;10.32;;;;;;;15.96;64.77;101066.13;4970313;28;20042;-64
2021/05/12 04:42:22;;;;;;;25.90;10.80;;;;;;;16.08;64.59;101070.34;4987016;28;20491;-65
2021/05/12 04:44:49;;;;;;;27.65;10.82;;;;;;;16.19;64.24;101071.00;4984094;28;20042;-67
2021/05/12 04:47:17;;;;;;;29.98;12.20;;;;;;;16.07;64.87;101077.50;4969176;28;20235;-64
2021/05/12 04:49:42;;;;;;;30.20;14.43;;;;;;;16.10;64.10;101073.88;4987181;28;20549;-64
2021/05/12 04:52:08;;;;;;;41.30;14.90;;;;;;;16.13;63.60;101030.97;4985366;28;20512;-66
2021/05/12 04:54:34;;;;;;;37.40;12.77;;;;;;;16.42;62.61;101060.69;4983516;28;20049;-65
2021/05/12 04:57:00;;;;;;;35.17;13.63;;;;;;;16.50;63.35;101070.28;4985466;28;20057;-67
2021/05/12 04:59:26;;;;;;;30.42;13.40;;;;;;;16.50;63.58;101070.28;4985593;28;20096;-63
2021/05/12 05:01:52;;;;;;;34.28;13.00;;;;;;;16.49;63.42;101071.19;4982790;28;20074;-70
2021/05/12 05:04:18;;;;;;;29.60;13.82;;;;;;;16.47;63.52;101065.00;4984191;28;20039;-64
2021/05/12 05:06:44;;;;;;;32.42;13.40;;;;;;;16.54;63.10;101053.22;4986049;28;20118;-64
2021/05/12 05:09:10;;;;;;;34.53;14.77;;;;;;;16.59;63.07;101061.16;4986219;28;20053;-63
2021/05/12 05:11:36;;;;;;;42.70;14.02;;;;;;;16.71;62.88;101067.13;4966920;28;20430;-63
2021/05/12 05:14:02;;;;;;;35.20;15.32;;;;;;;16.70;63.40;101067.16;4967060;28;20529;-68
2021/05/12 05:16:28;;;;;;;53.22;16.30;;;;;;;16.75;63.14;101036.66;4953264;28;20388;-64
2021/05/12 05:18:56;;;;;;;46.72;17.13;;;;;;;16.63;63.07;101038.75;4968982;28;20042;-66
2021/05/12 05:21:22;;;;;;;68.57;32.97;;;;;;;16.84;62.83;101049.81;4967231;28;20872;-68
2021/05/12 05:23:48;;;;;;;34.90;14.48;;;;;;;16.65;62.85;101016.34;4952447;28;20057;-68
2021/05/12 05:26:14;;;;;;;32.35;14.73;;;;;;;16.76;63.06;101038.41;4968878;28;20050;-66
2021/05/12 05:28:40;;;;;;;32.35;15.05;;;;;;;16.61;63.11;101027.16;4967044;28;20077;-67
2021/05/12 05:31:06;;;;;;;34.42;14.48;;;;;;;16.52;63.59;101025.63;4985440;28;20443;-63
2021/05/12 05:33:50;;;;;;;35.47;14.30;;;;;;;16.48;63.57;101029.28;4949098;28;20069;-63
2021/05/12 05:36:34;;;;;;;34.67;13.63;;;;;;;16.41;63.72;101037.47;4935776;28;20050;-66
2021/05/12 05:39:19;;;;;;;32.40;14.32;;;;;;;16.45;63.43;101007.94;4966273;28;20101;-65
2021/05/12 05:42:17;;;;;;;28.85;14.02;;;;;;;16.54;63.19;101020.22;4869605;29;20072;-63
2021/05/12 05:45:02;;;;;;;40.08;15.73;;;;;;;16.55;62.86;101022.88;4870911;29;20120;-61
2021/05/12 05:47:46;;;;;;;38.08;15.00;;;;;;;16.64;63.13;101035.13;4887869;29;20048;-63
2021/05/12 05:50:31;;;;;;;39.88;14.05;;;;;;;16.74;62.90;101039.38;4884745;29;20079;-70
2021/05/12 05:53:19;;;;;;;35.47;14.73;;;;;;;16.78;62.82;101044.59;4867823;29;20061;-67
2021/05/12 05:56:04;;;;;;;43.40;15.57;;;;;;;16.84;62.73;101035.53;4859347;29;20056;-69
2021/05/12 05:58:48;;;;;;;36.35;15.77;;;;;;;16.79;62.52;101046.38;4871908;29;20069;-63
2021/05/12 06:01:33;;;;;;;32.45;16.17;;;;;;;16.84;62.49;101038.19;4855659;29;20127;-63
2021/05/12 06:03:59;;;;;;;34.15;17.27;;;;;;;16.86;62.32;101037.25;4888954;29;20051;-65
2021/05/12 06:06:44;;;;;;;39.00;17.58;;;;;;;16.96;62.21;101049.50;4894692;29;20045;-62
2021/05/12 06:09:28;;;;;;;35.10;17.58;;;;;;;16.80;62.38;101041.88;4907707;29;20490;-62
2021/05/12 06:12:14;;;;;;;36.33;17.25;;;;;;;16.75;62.83;101033.09;4910690;29;20056;-64
2021/05/12 06:14:59;;;;;;;44.65;16.45;;;;;;;16.53;63.34;101027.38;4910720;29;20149;-64
2021/05/12 06:17:43;;;;;;;43.22;16.80;;;;;;;16.55;63.75;101025.56;4941007;28;20054;-64
2021/05/12 06:20:27;;;;;;;47.97;18.15;;;;;;;16.69;63.44;101025.22;5004616;28;20073;-63
2021/05/12 06:23:11;;;;;;;37.85;17.63;;;;;;;16.64;63.39;101030.66;4988562;28;20081;-72
2021/05/12 06:25:56;;;;;;;33.80;16.92;;;;;;;16.76;63.07;101029.47;4974498;28;20070;-67
2021/05/12 06:28:41;;;;;;;31.95;16.27;;;;;;;16.67;63.38;101027.94;4987784;28;20112;-63
2021/05/12 06:31:25;;;;;;;37.35;16.45;;;;;;;16.63;63.78;101028.03;4986475;28;20105;-65
2021/05/12 06:34:17;;;;;;;38.28;16.80;;;;;;;16.76;63.31;101024.13;4987214;28;20594;-63
2021/05/12 06:37:02;;;;;;;56.42;17.02;;;;;;;16.75;62.98;101009.88;4987026;28;20053;-62
2021/05/12 06:39:50;;;;;;;28.30;17.60;;;;;;;16.38;64.08;100982.19;4987091;28;20061;-65
2021/05/12 06:42:16;;;;;;;41.20;17.17;;;;;;;16.39;64.88;100977.72;4986777;28;20046;-63
2021/05/12 06:44:43;;;;;;;41.47;17.65;;;;;;;16.38;64.92;100989.34;4984704;28;20148;-64
2021/05/12 06:47:08;;;;;;;40.03;17.27;;;;;;;16.68;64.00;100992.19;4952872;28;20125;-65
2021/05/12 06:49:34;;;;;;;46.28;17.67;;;;;;;16.67;63.98;100982.38;4987055;28;20392;-63
2021/05/12 06:52:00;;;;;;;40.60;16.88;;;;;;;16.81;63.23;100974.84;4986468;28;20126;-61
2021/05/12 06:54:27;;;;;;;37.08;16.30;;;;;;;16.80;63.26;100949.00;4968766;28;20403;-63
2021/05/12 06:56:53;;;;;;;35.83;16.95;;;;;;;16.74;63.51;100941.09;4986407;28;20088;-63
2021/05/12 06:59:19;;;;;;;46.78;16.75;;;;;;;16.72;63.28;100956.34;4986191;28;20058;-65
2021/05/12 07:01:45;;;;;;;43.90;17.67;;;;;;;16.89;63.16;100975.53;4967492;28;20038;-69
2021/05/12 07:04:11;;;;;;;47.20;17.52;;;;;;;16.92;63.25;100971.88;4970371;28;20081;-63
2021/05/12 07:06:36;;;;;;;35.15;16.08;;;;;;;16.90;62.91;100955.84;4985838;28;20537;-63
2021/05/12 07:09:03;;;;;;;38.60;16.75;;;;;;;16.78;63.69;100958.84;4986751;28;20352;-63
2021/05/12 07:11:29;;;;;;;37.20;17.35;;;;;;;16.82;63.12;100951.63;4973131;28;20542;-61
2021/05/12 07:13:55;;;;;;;44.75;16.85;;;;;;;17.06;62.89;100959.03;4987486;28;20055;-62
2021/05/12 07:16:22;;;;;;;45.38;18.05;;;;;;;17.17;62.03;100957.78;4986154;28;20073;-63
2021/05/12 07:18:48;;;;;;;43.13;17.92;;;;;;;17.24;62.15;100958.50;4987662;28;20132;-69
2021/05/12 07:21:14;;;;;;;37.45;17.30;;;;;;;17.25;62.16;100945.03;4986948;28;20085;-63
2021/05/12 07:23:43;;;;;;;39.40;18.92;;;;;;;17.13;62.79;100948.06;4988728;28;20046;-65
2021/05/12 07:26:11;;;;;;;38.20;18.10;;;;;;;17.30;61.87;100943.13;4988902;28;20583;-64
2021/05/12 07:28:37;;;;;;;38.25;18.88;;;;;;;17.31;62.13;100928.81;4986113;28;20054;-63
2021/05/12 07:31:04;;;;;;;40.10;17.55;;;;;;;17.38;61.69;100925.03;4987721;28;20042;-62
2021/05/12 07:33:30;;;;;;;41.13;19.33;;;;;;;17.06;62.60;100910.78;4954977;28;20451;-63
2021/05/12 07:35:56;;;;;;;60.50;28.50;;;;;;;17.40;61.83;100901.75;4970212;28;20163;-69
2021/05/12 07:38:21;;;;;;;41.95;17.75;;;;;;;17.55;60.93;100914.69;5002562;28;20542;-63
2021/05/12 07:40:47;;;;;;;42.95;18.38;;;;;;;17.59;60.63;100894.91;4971082;28;20078;-63
2021/05/12 07:43:13;;;;;;;44.85;18.38;;;;;;;17.69;60.79;100904.41;4987321;28;20061;-61
2021/05/12 07:45:41;;;;;;;35.33;17.63;;;;;;;17.77;60.95;100905.06;4985469;28;20065;-63
2021/05/12 07:48:13;;;;;;;39.03;17.30;;;;;;;17.87;60.19;100890.44;4971288;28;20065;-63
2021/05/12 07:50:40;;;;;;;47.20;17.20;;;;;;;18.26;59.58;100906.16;4987398;28;20057;-63
2021/05/12 07:53:07;;;;;;;47.42;17.25;;;;;;;18.19;59.82;100910.00;4986721;28;20049;-70
2021/05/12 07:55:35;;;;;;;36.10;17.38;;;;;;;18.30;59.33;100906.03;4970841;28;20208;-63
2021/05/12 07:58:01;;;;;;;34.33;18.30;;;;;;;18.19;59.41;100896.56;4985589;28;20046;-66
2021/05/12 08:00:28;;;;;;;39.35;17.80;;;;;;;17.98;60.01;100911.56;4987510;28;20096;-64
2021/05/12 08:02:54;;;;;;;41.90;16.60;;;;;;;18.13;59.96;100912.88;4984571;28;20049;-65
2021/05/12 08:05:19;;;;;;;36.90;17.02;;;;;;;18.29;59.39;100916.81;4987602;28;20046;-66
2021/05/12 08:07:45;;;;;;;30.73;15.90;;;;;;;18.67;58.47;100900.31;4986054;28;20050;-66
2021/05/12 08:10:12;;;;;;;50.67;15.20;;;;;;;19.02;57.39;100895.44;4986737;28;20510;-71
2021/05/12 08:12:38;;;;;;;35.75;16.38;;;;;;;19.27;56.85;100890.06;4987245;28;20418;-64
2021/05/12 08:15:04;;;;;;;37.97;16.45;;;;;;;19.36;56.74;100887.03;4987345;28;20046;-66
2021/05/12 08:17:30;;;;;;;30.20;15.85;;;;;;;19.53;55.77;100885.44;4986277;28;20141;-64
2021/05/12 08:19:58;;;;;;;42.95;16.42;;;;;;;19.68;55.74;100874.09;4984205;28;20046;-65
2021/05/12 08:22:24;;;;;;;43.53;15.98;;;;;;;19.85;55.61;100870.69;4987580;28;20054;-68
2021/05/12 08:24:50;;;;;;;35.60;16.30;;;;;;;19.86;54.74;100867.09;4986209;28;20109;-64
2021/05/12 08:27:16;;;;;;;30.70;15.50;;;;;;;19.90;55.14;100861.50;4987182;28;20161;-73
2021/05/12 08:29:43;;;;;;;30.98;15.57;;;;;;;19.89;55.24;100864.28;4984772;28;20046;-64
2021/05/12 08:32:11;;;;;;;34.55;15.35;;;;;;;20.00;55.07;100853.94;4969101;28;20093;-67
2021/05/12 08:34:37;;;;;;;39.85;15.43;;;;;;;19.62;55.51;100827.69;4986300;28;20072;-65
2021/05/12 08:37:04;;;;;;;31.42;15.50;;;;;;;20.17;53.57;100836.16;4984163;28;20569;-65
2021/05/12 08:39:30;;;;;;;33.55;15.27;;;;;;;20.39;53.30;100815.47;4986022;28;20050;-65
2021/05/12 08:41:57;;;;;;;34.28;15.05;;;;;;;20.92;52.43;100824.75;4986959;28;20050;-64
2021/05/12 08:44:25;;;;;;;39.35;16.75;;;;;;;21.19;51.76;100826.19;4986047;28;20046;-70
2021/05/12 08:46:51;;;;;;;32.60;15.88;;;;;;;21.94;50.36;100829.78;4983802;28;20073;-64
2021/05/12 08:49:19;;;;;;;38.63;16.02;;;;;;;22.73;47.75;100803.13;4969703;28;20050;-63
2021/05/12 08:51:45;;;;;;;32.83;14.43;;;;;;;23.09;47.23;100817.38;4969595;28;20490;-68
2021/05/12 08:54:12;;;;;;;27.38;14.27;;;;;;;23.51;45.82;100795.22;4985599;28;20042;-65
2021/05/12 08:56:39;;;;;;;33.47;14.38;;;;;;;24.61;43.89;100800.44;4969536;28;20050;-64
2021/05/12 08:59:05;;;;;;;28.45;13.52;;;;;;;26.08;40.77;100779.09;4987135;28;20058;-65
2021/05/12 09:01:33;;;;;;;35.40;13.05;;;;;;;26.43;39.82;100781.16;4986096;28;20050;-71
2021/05/12 09:04:02;;;;;;;35.22;14.25;;;;;;;25.23;41.48;100776.53;4969424;28;20837;-64
2021/05/12 09:06:28;;;;;;;24.50;12.50;;;;;;;24.62;43.05;100770.50;4986049;28;20046;-67
2021/05/12 09:08:56;;;;;;;22.38;12.52;;;;;;;24.21;43.62;100747.69;4984055;28;20477;-64
2021/05/12 09:11:23;;;;;;;31.05;13.00;;;;;;;25.21;42.15;100766.75;4984194;28;20053;-70
2021/05/12 09:13:49;;;;;;;25.13;11.80;;;;;;;26.54;39.83;100769.53;4986961;28;20042;-66
2021/05/12 09:16:18;;;;;;;19.00;11.48;;;;;;;25.27;41.91;100759.06;4984579;28;20521;-65
2021/05/12 09:18:45;;;;;;;21.33;11.32;;;;;;;24.70;42.88;100751.03;4967214;28;20088;-65
2021/05/12 09:21:13;;;;;;;29.08;11.68;;;;;;;24.33;43.39;100744.22;4953479;28;20042;-65
2021/05/12 09:23:41;;;;;;;25.10;11.57;;;;;;;24.17;44.11;100727.16;4985472;28;20054;-65
2021/05/12 09:26:15;;;;;;;23.58;12.93;;;;;;;24.31;44.26;100732.63;4984537;28;20609;-71
2021/05/12 09:28:43;;;;;;;29.52;12.50;;;;;;;24.52;43.55;100716.88;5000734;28;20520;-65
2021/05/12 09:31:13;;;;;;;21.30;11.95;;;;;;;25.20;42.92;100718.84;4984443;28;20050;-65
2021/05/12 09:33:44;;;;;;;24.98;12.27;;;;;;;24.57;43.83;100702.03;4982702;28;20442;-66
2021/05/12 09:36:24;;;;;;;26.27;12.32;;;;;;;25.58;41.77;100712.66;4968442;28;20496;-66
2021/05/12 09:38:55;;;;;;;18.70;10.73;;;;;;;26.26;40.94;100699.81;4985073;28;20188;-64
2021/05/12 09:41:33;;;;;;;19.98;11.35;;;;;;;26.13;40.57;100706.22;4983191;28;20074;-68
2021/05/12 09:44:00;;;;;;;20.88;11.13;;;;;;;26.46;40.23;100685.69;4986196;28;20491;-68
2021/05/12 09:46:27;;;;;;;26.92;10.60;;;;;;;27.46;38.86;100684.75;4977168;28;20037;-73
2021/05/12 09:49:00;;;;;;;17.63;9.20;;;;;;;26.66;40.10;100687.06;4951349;28;20129;-68
2021/05/12 09:51:28;;;;;;;17.38;9.57;;;;;;;26.94;39.88;100679.53;4984910;28;20525;-68
2021/05/12 09:54:06;;;;;;;18.63;9.57;;;;;;;28.10;37.79;100670.69;4985552;28;20142;-70
2021/05/12 09:57:00;;;;;;;20.17;9.55;;;;;;;29.62;34.97;100682.84;4968962;28;20042;-67
2021/05/12 09:59:30;;;;;;;20.75;8.90;;;;;;;31.10;32.57;100666.94;4982628;28;20061;-69
2021/05/12 10:01:58;;;;;;;18.95;9.10;;;;;;;31.93;31.26;100668.31;4985122;28;20042;-66
2021/05/12 10:04:45;;;;;;;24.45;9.65;;;;;;;31.88;31.24;100656.88;4968641;28;20503;-69
2021/05/12 10:07:23;;;;;;;27.90;9.43;;;;;;;33.18;29.82;100664.28;4968867;28;20050;-69
2021/05/12 10:09:52;;;;;;;17.63;9.10;;;;;;;32.96;30.22;100648.19;4980291;28;20054;-69
2021/05/12 10:12:21;;;;;;;19.27;8.65;;;;;;;33.59;29.21;100646.41;4981883;28;20046;-68
2021/05/12 10:14:51;;;;;;;27.33;8.27;;;;;;;32.44;31.14;100641.38;4937073;28;20108;-68
2021/05/12 10:17:20;;;;;;;16.17;8.05;;;;;;;31.32;32.33;100609.16;4982770;28;20461;-67
2021/05/12 10:19:48;;;;;;;22.05;8.25;;;;;;;30.23;34.47;100609.09;4966306;28;20038;-67
2021/05/12 10:22:15;;;;;;;24.02;8.30;;;;;;;29.94;34.63;100610.72;4969017;28;20133;-68
2021/05/12 10:24:44;;;;;;;22.40;8.70;;;;;;;30.11;34.13;100601.94;5001643;28;20054;-66
2021/05/12 10:27:11;;;;;;;16.65;8.13;;;;;;;29.65;35.10;100598.69;4984939;28;20133;-74
2021/05/12 10:29:39;;;;;;;17.63;7.65;;;;;;;29.02;36.08;100583.09;4952865;28;20054;-67
2021/05/12 10:32:36;;;;;;;14.80;7.65;;;;;;;29.33;35.45;100582.25;4967471;28;20066;-67
2021/05/12 10:35:09;;;;;;;20.45;7.90;;;;;;;29.89;35.02;100588.38;4913405;29;20074;-66
2021/05/12 10:37:42;;;;;;;16.52;7.57;;;;;;;30.08;34.84;100577.56;4944912;29;20051;-71
2021/05/12 10:40:20;;;;;;;15.77;7.80;;;;;;;29.61;34.96;100556.19;4911487;29;20059;-67
2021/05/12 10:45:31;;;;;;;19.92;7.55;;;;;;;30.39;33.83;100557.47;4931297;29;20051;-74
2021/05/12 10:47:57;;;;;;;20.75;7.03;;;;;;;30.68;33.66;100554.81;4948678;29;20105;-67
2021/05/12 10:50:44;;;;;;;19.48;7.85;;;;;;;32.32;31.87;100560.19;4948262;29;20498;-67
2021/05/12 10:53:26;;;;;;;12.77;6.82;;;;;;;31.44;32.76;100544.94;4948006;29;20276;-66
2021/05/12 10:55:57;;;;;;;;;;;;;;;31.33;32.61;100527.78;4932917;29;20035;-66
2021/05/12 10:58:28;;;;;;;12.85;6.63;;;;;;;30.58;33.25;100527.44;4946651;29;20244;-71
2021/05/12 11:01:02;;;;;;;16.45;6.90;;;;;;;29.67;34.69;100506.47;4931272;29;20122;-68
2021/05/12 11:03:53;;;;;;;15.45;6.70;;;;;;;29.38;35.24;100491.66;4947028;29;20078;-73
2021/05/12 11:06:46;;;;;;;24.55;7.03;;;;;;;29.01;35.45;100484.88;4947912;29;20239;-69
2021/05/12 11:09:25;;;;;;;13.65;6.55;;;;;;;28.53;36.03;100472.56;4932042;29;20121;-71
2021/05/12 11:11:57;;;;;;;29.35;5.50;;;;;;;27.86;36.10;100468.09;4944067;28;20058;-68
2021/05/12 11:14:31;;;;;;;7.65;4.07;;;;;;;27.52;35.27;100468.97;4969524;28;20042;-67
2021/05/12 11:17:15;;;;;;;11.80;4.40;;;;;;;26.97;35.49;100444.28;4970182;28;20101;-69
2021/05/12 11:33:32;;;;;;;10.98;3.88;;;;;;;26.70;35.91;100451.81;4986369;28;20058;-69
2021/05/12 11:36:15;;;;;;;13.80;3.80;;;;;;;26.55;35.97;100423.88;4955495;28;20093;-71
2021/05/12 11:38:42;;;;;;;12.52;3.85;;;;;;;26.70;36.00;100427.31;4985976;28;20463;-70
2021/05/12 11:41:24;;;;;;;21.98;3.95;;;;;;;26.50;36.25;100403.44;4968901;28;20092;-71